createdAt,value
2023-11-13T00:00:22.691Z,7.57
2023-11-13T00:02:49.307Z,7.58
2023-11-13T00:08:43.827Z,7.66
2023-11-13T00:11:10.710Z,7.66
2023-11-13T00:13:37.687Z,7.68
2023-11-13T00:16:04.952Z,7.70
2023-11-13T00:18:33.070Z,7.72
2023-11-13T00:21:00.227Z,7.74
2023-11-13T00:23:28.731Z,7.75
2023-11-13T00:25:55.442Z,7.76
2023-11-13T00:28:22.496Z,7.77
2023-11-13T00:30:49.128Z,7.78
2023-11-13T00:33:17.245Z,7.78
2023-11-13T00:35:45.393Z,7.79
2023-11-13T00:38:12.201Z,7.79
2023-11-13T00:40:38.836Z,7.78
2023-11-13T00:43:06.090Z,7.79
2023-11-13T00:45:33.108Z,7.80
2023-11-13T00:47:59.782Z,7.80
2023-11-13T00:50:26.439Z,7.81
2023-11-13T00:52:53.006Z,7.81
2023-11-13T00:55:19.667Z,7.80
2023-11-13T00:57:46.955Z,7.80
2023-11-13T01:00:14.590Z,7.81
2023-11-13T01:02:41.139Z,7.81
2023-11-13T01:05:08.249Z,7.78
2023-11-13T01:08:39.023Z,7.76
2023-11-13T01:11:05.616Z,7.72
2023-11-13T01:13:32.186Z,7.72
2023-11-13T01:15:58.879Z,7.70
2023-11-13T01:18:25.545Z,7.67
2023-11-13T01:20:52.196Z,7.66
2023-11-13T01:23:18.933Z,7.66
2023-11-13T01:25:48.820Z,7.66
2023-11-13T01:28:16.996Z,7.67
2023-11-13T01:30:43.591Z,7.66
2023-11-13T01:33:10.162Z,7.68
2023-11-13T01:35:36.812Z,7.70
2023-11-13T01:38:03.428Z,7.71
2023-11-13T01:40:30.059Z,7.73
2023-11-13T01:42:56.585Z,7.74
2023-11-13T01:45:23.090Z,7.74
2023-11-13T01:47:50.587Z,7.74
2023-11-13T01:50:17.313Z,7.75
2023-11-13T01:52:44.011Z,7.76
2023-11-13T01:55:13.361Z,7.76
2023-11-13T01:57:42.068Z,7.76
2023-11-13T02:00:09.227Z,7.77
2023-11-13T02:02:36.045Z,7.76
2023-11-13T02:05:03.038Z,7.77
2023-11-13T02:08:41.231Z,7.80
2023-11-13T02:11:08.763Z,7.77
2023-11-13T02:13:35.454Z,7.75
2023-11-13T02:16:02.122Z,7.73
2023-11-13T02:18:29.016Z,7.70
2023-11-13T02:20:57.685Z,7.68
2023-11-13T02:23:24.304Z,7.65
2023-11-13T02:34:27.133Z,7.55
2023-11-13T02:36:54.074Z,7.51
2023-11-13T02:39:22.507Z,7.50
2023-11-13T02:41:50.069Z,7.47
2023-11-13T02:44:16.626Z,7.46
2023-11-13T02:46:43.674Z,7.45
2023-11-13T02:49:10.436Z,7.42
2023-11-13T02:51:37.031Z,7.42
2023-11-13T02:54:04.585Z,7.40
2023-11-13T02:56:31.606Z,7.38
2023-11-13T02:58:58.773Z,7.37
2023-11-13T03:01:25.879Z,7.36
2023-11-13T03:03:52.751Z,7.36
2023-11-13T03:06:23.227Z,7.35
2023-11-13T03:08:49.763Z,7.35
2023-11-13T03:11:17.452Z,7.34
2023-11-13T03:13:44.034Z,7.34
2023-11-13T03:16:11.198Z,7.32
2023-11-13T03:18:37.878Z,7.32
2023-11-13T03:21:05.558Z,7.31
2023-11-13T03:23:32.112Z,7.31
2023-11-13T03:26:04.115Z,7.30
2023-11-13T03:28:31.857Z,7.29
2023-11-13T03:30:58.618Z,7.28
2023-11-13T03:33:26.220Z,7.27
2023-11-13T03:35:52.989Z,7.26
2023-11-13T03:50:40.906Z,7.30
2023-11-13T03:53:07.409Z,7.29
2023-11-13T03:55:34.114Z,7.30
2023-11-13T04:06:50.670Z,7.37
2023-11-13T04:09:17.728Z,7.36
2023-11-13T04:11:46.480Z,7.37
2023-11-13T04:14:13.181Z,7.36
2023-11-13T04:16:39.906Z,7.36
2023-11-13T04:19:06.633Z,7.36
2023-11-13T04:21:33.365Z,7.37
2023-11-13T04:24:00.397Z,7.37
2023-11-13T04:26:27.373Z,7.39
2023-11-13T04:28:54.738Z,7.40
2023-11-13T04:31:21.661Z,7.42
2023-11-13T04:33:49.836Z,7.44
2023-11-13T04:36:16.838Z,7.45
2023-11-13T04:38:43.474Z,7.47
2023-11-13T04:41:11.879Z,7.49
2023-11-13T04:43:39.332Z,7.50
2023-11-13T04:46:07.414Z,7.52
2023-11-13T04:48:33.987Z,7.53
2023-11-13T04:51:01.069Z,7.54
2023-11-13T04:53:28.016Z,7.55
2023-11-13T04:55:54.671Z,7.56
2023-11-13T04:58:22.413Z,7.58
2023-11-13T05:00:49.563Z,7.58
2023-11-13T05:03:16.606Z,7.57
2023-11-13T05:08:39.713Z,7.61
2023-11-13T05:11:07.533Z,7.58
2023-11-13T05:13:34.324Z,7.56
2023-11-13T05:16:01.473Z,7.55
2023-11-13T05:18:28.136Z,7.54
2023-11-13T05:20:55.012Z,7.52
2023-11-13T05:23:21.658Z,7.51
2023-11-13T05:25:48.488Z,7.51
2023-11-13T05:28:17.192Z,7.50
2023-11-13T05:30:44.312Z,7.50
2023-11-13T05:33:11.022Z,7.50
2023-11-13T05:35:37.568Z,7.50
2023-11-13T05:38:04.862Z,7.50
2023-11-13T05:40:31.743Z,7.51
2023-11-13T05:42:58.368Z,7.52
2023-11-13T05:45:24.986Z,7.54
2023-11-13T05:47:52.861Z,7.55
2023-11-13T05:50:19.594Z,7.56
2023-11-13T05:52:48.441Z,7.59
2023-11-13T05:55:15.214Z,7.60
2023-11-13T05:57:41.921Z,7.62
2023-11-13T06:00:12.283Z,7.64
2023-11-13T06:02:39.298Z,7.63
2023-11-13T06:05:06.157Z,7.61
2023-11-13T06:08:40.039Z,7.65
2023-11-13T06:11:06.545Z,7.62
2023-11-13T06:13:34.014Z,7.60
2023-11-13T06:16:26.031Z,7.62
2023-11-13T06:18:54.496Z,7.59
2023-11-13T06:21:21.264Z,7.56
2023-11-13T06:23:47.754Z,7.54
2023-11-13T06:26:14.768Z,7.53
2023-11-13T06:28:41.666Z,7.52
2023-11-13T06:31:11.452Z,7.51
2023-11-13T06:33:39.314Z,7.49
2023-11-13T06:36:12.557Z,7.47
2023-11-13T06:38:39.127Z,7.43
2023-11-13T06:41:06.405Z,7.39
2023-11-13T06:43:34.575Z,7.38
2023-11-13T06:46:01.797Z,7.39
2023-11-13T06:48:28.722Z,7.40
2023-11-13T06:50:55.347Z,7.41
2023-11-13T06:53:24.667Z,7.41
2023-11-13T06:55:51.321Z,7.43
2023-11-13T06:58:18.038Z,7.43
2023-11-13T07:00:45.624Z,7.44
2023-11-13T07:03:14.573Z,7.44
2023-11-13T07:08:43.658Z,7.49
2023-11-13T07:11:15.991Z,7.48
2023-11-13T07:13:42.716Z,7.47
2023-11-13T07:16:10.572Z,7.46
2023-11-13T07:18:37.657Z,7.45
2023-11-13T07:21:07.419Z,7.44
2023-11-13T07:23:34.123Z,7.41
2023-11-13T07:26:00.641Z,7.39
2023-11-13T07:28:27.843Z,7.39
2023-11-13T07:30:56.175Z,7.40
2023-11-13T07:33:22.985Z,7.41
2023-11-13T07:35:49.527Z,7.41
2023-11-13T07:38:16.013Z,7.43
2023-11-13T07:40:42.645Z,7.45
2023-11-13T07:43:10.330Z,7.45
2023-11-13T07:45:39.529Z,7.47
2023-11-13T07:48:06.593Z,7.47
2023-11-13T07:50:33.281Z,7.47
2023-11-13T07:53:20.381Z,7.47
2023-11-13T07:55:47.815Z,7.48
2023-11-13T07:58:14.970Z,7.51
2023-11-13T08:00:41.475Z,7.53
2023-11-13T08:03:08.125Z,7.56
2023-11-13T08:08:36.250Z,7.69
2023-11-13T08:11:03.785Z,7.71
2023-11-13T08:13:30.371Z,7.75
2023-11-13T08:15:57.057Z,7.77
2023-11-13T08:18:24.234Z,7.80
2023-11-13T08:20:51.154Z,7.82
2023-11-13T08:23:17.851Z,7.82
2023-11-13T08:25:45.723Z,7.83
2023-11-13T08:28:15.838Z,7.84
2023-11-13T08:30:44.830Z,7.84
2023-11-13T08:33:12.379Z,7.86
2023-11-13T08:35:39.484Z,7.87
2023-11-13T08:38:09.897Z,7.87
2023-11-13T08:40:37.775Z,7.89
2023-11-13T08:43:07.477Z,7.90
2023-11-13T08:45:37.732Z,7.94
2023-11-13T08:48:11.305Z,7.97
2023-11-13T08:50:38.852Z,8.02
2023-11-13T08:53:06.512Z,8.08
2023-11-13T08:55:36.865Z,8.13
2023-11-13T08:58:05.202Z,8.16
2023-11-13T09:00:42.114Z,8.20
2023-11-13T09:03:12.931Z,8.24
2023-11-13T09:08:38.354Z,8.31
2023-11-13T09:11:06.356Z,8.31
2023-11-13T09:13:32.973Z,8.32
2023-11-13T09:18:28.433Z,8.36
2023-11-13T09:20:59.435Z,8.40
2023-11-13T09:23:28.079Z,8.43
2023-11-13T09:25:55.567Z,8.45
2023-11-13T09:28:22.666Z,8.46
2023-11-13T09:30:49.445Z,8.48
2023-11-13T09:33:18.374Z,8.48
2023-11-13T09:35:47.402Z,8.49
2023-11-13T09:38:14.122Z,8.50
2023-11-13T09:40:40.890Z,8.52
2023-11-13T09:43:35.289Z,8.54
2023-11-13T09:46:09.975Z,8.56
2023-11-13T09:48:45.346Z,8.59
2023-11-13T09:51:27.778Z,8.62
2023-11-13T09:53:59.861Z,8.64
2023-11-13T09:56:30.690Z,8.65
2023-11-13T09:59:03.596Z,8.69
2023-11-13T10:01:31.356Z,8.71
2023-11-13T10:03:59.510Z,8.74
2023-11-13T10:06:28.988Z,8.76
2023-11-13T10:08:56.357Z,8.79
2023-11-13T10:11:26.503Z,8.80
2023-11-13T10:13:53.217Z,8.82
2023-11-13T10:16:22.602Z,8.85
2023-11-13T10:25:19.383Z,9.02
2023-11-13T10:27:57.078Z,9.05
2023-11-13T10:30:23.620Z,9.10
2023-11-13T10:32:50.267Z,9.13
2023-11-13T10:35:36.545Z,9.15
2023-11-13T10:38:09.279Z,9.21
2023-11-13T10:40:40.447Z,9.24
2023-11-13T10:43:09.178Z,9.27
2023-11-13T10:45:36.079Z,9.29
2023-11-13T10:48:04.015Z,9.31
2023-11-13T10:50:31.807Z,9.32
2023-11-13T10:53:00.327Z,9.33
2023-11-13T10:55:28.892Z,9.33
2023-11-13T10:57:56.368Z,9.33
2023-11-13T11:00:23.425Z,9.34
2023-11-13T11:02:55.169Z,9.35
2023-11-13T11:05:23.977Z,9.36
2023-11-13T11:07:54.079Z,9.37
2023-11-13T11:10:26.512Z,9.38
2023-11-13T11:13:10.270Z,9.40
2023-11-13T11:16:07.380Z,9.41
2023-11-13T11:18:57.347Z,9.44
2023-11-13T11:21:37.687Z,9.47
2023-11-13T11:24:21.189Z,9.49
2023-11-13T11:26:55.951Z,9.51
2023-11-13T11:29:42.003Z,9.53
2023-11-13T11:32:15.186Z,9.54
2023-11-13T11:34:50.101Z,9.55
2023-11-13T11:37:17.648Z,9.57
2023-11-13T11:39:50.403Z,9.60
2023-11-13T11:42:18.273Z,9.61
2023-11-13T11:45:00.489Z,9.64
2023-11-13T11:47:29.060Z,9.67
2023-11-13T11:49:58.090Z,9.71
2023-11-13T11:52:50.175Z,9.75
2023-11-13T11:55:18.377Z,9.82
2023-11-13T11:57:46.316Z,9.88
2023-11-13T12:00:20.718Z,9.97
2023-11-13T12:02:49.078Z,10.04
2023-11-13T12:08:39.662Z,10.25
2023-11-13T12:11:08.586Z,10.32
2023-11-13T12:13:35.239Z,10.37
2023-11-13T12:16:02.174Z,10.42
2023-11-13T12:18:30.242Z,10.47
2023-11-13T12:20:57.898Z,10.51
2023-11-13T12:23:24.501Z,10.54
2023-11-13T12:25:51.408Z,10.56
2023-11-13T12:28:18.535Z,10.60
2023-11-13T12:30:45.146Z,10.64
2023-11-13T12:33:13.316Z,10.68
2023-11-13T12:35:40.813Z,10.73
2023-11-13T12:38:08.562Z,10.76
2023-11-13T12:40:36.623Z,10.80
2023-11-13T12:43:04.933Z,10.84
2023-11-13T12:45:32.790Z,10.87
2023-11-13T12:48:01.415Z,10.91
2023-11-13T12:50:28.005Z,10.94
2023-11-13T12:52:56.024Z,10.98
2023-11-13T12:55:24.650Z,11.02
2023-11-13T12:57:54.970Z,11.06
2023-11-13T13:00:22.479Z,11.10
2023-11-13T13:02:54.169Z,11.13
2023-11-13T13:08:29.161Z,11.26
2023-11-13T13:10:55.745Z,11.29
2023-11-13T13:13:24.146Z,11.32
2023-11-13T13:15:51.737Z,11.36
2023-11-13T13:18:18.354Z,11.37
2023-11-13T13:20:45.263Z,11.41
2023-11-13T13:23:12.054Z,11.43
2023-11-13T13:25:41.313Z,11.45
2023-11-13T13:28:10.951Z,11.48
2023-11-13T13:30:40.318Z,11.50
2023-11-13T13:33:11.655Z,11.54
2023-11-13T13:35:39.968Z,11.58
2023-11-13T13:38:06.962Z,11.61
2023-11-13T13:40:35.027Z,11.65
2023-11-13T13:43:02.364Z,11.68
2023-11-13T13:45:29.435Z,11.71
2023-11-13T13:47:58.322Z,11.72
2023-11-13T14:04:13.249Z,11.94
2023-11-13T14:19:45.713Z,12.15
2023-11-13T14:22:13.198Z,12.15
2023-11-13T14:24:41.300Z,12.18
2023-11-13T14:27:09.226Z,12.20
2023-11-13T14:29:35.856Z,12.21
2023-11-13T14:32:03.203Z,12.23
2023-11-13T14:34:30.740Z,12.24
2023-11-13T14:36:57.607Z,12.25
2023-11-13T14:39:26.825Z,12.27
2023-11-13T14:41:53.340Z,12.27
2023-11-13T14:44:19.905Z,12.29
2023-11-13T14:46:47.046Z,12.30
2023-11-13T14:49:13.709Z,12.32
2023-11-13T14:51:40.267Z,12.34
2023-11-13T14:54:07.326Z,12.35
2023-11-13T14:56:33.877Z,12.36
2023-11-13T14:59:02.905Z,12.37
2023-11-13T15:08:30.404Z,12.45
2023-11-13T15:10:57.077Z,12.45
2023-11-13T15:13:23.788Z,12.46
2023-11-13T15:15:52.671Z,12.48
2023-11-13T15:18:19.581Z,12.50
2023-11-13T15:20:47.269Z,12.52
2023-11-13T15:23:25.818Z,12.55
2023-11-13T15:26:01.701Z,12.58
2023-11-13T15:28:28.354Z,12.61
2023-11-13T15:30:54.981Z,12.64
2023-11-13T15:33:21.591Z,12.67
2023-11-13T15:35:48.137Z,12.69
2023-11-13T15:38:17.524Z,12.71
2023-11-13T15:40:44.188Z,12.74
2023-11-13T15:43:10.800Z,12.76
2023-11-13T15:45:37.334Z,12.78
2023-11-13T15:48:05.592Z,12.81
2023-11-13T15:50:33.945Z,12.82
2023-11-13T15:53:00.589Z,12.83
2023-11-13T15:55:27.205Z,12.85
2023-11-13T15:57:53.824Z,12.88
2023-11-13T16:00:20.308Z,12.90
2023-11-13T16:02:48.178Z,12.91
2023-11-13T16:08:39.726Z,12.98
2023-11-13T16:11:06.422Z,12.98
2023-11-13T16:13:33.513Z,12.99
2023-11-13T16:16:00.318Z,12.99
2023-11-13T16:18:26.910Z,12.99
2023-11-13T16:20:53.810Z,13.00
2023-11-13T16:23:22.170Z,13.02
2023-11-13T16:25:54.327Z,13.05
2023-11-13T16:28:22.847Z,13.11
2023-11-13T16:30:49.605Z,13.17
2023-11-13T16:33:16.255Z,13.23
2023-11-13T16:35:45.413Z,13.27
2023-11-13T16:38:12.995Z,13.28
2023-11-13T16:40:40.074Z,13.28
2023-11-13T16:43:06.719Z,13.28
2023-11-13T16:45:33.529Z,13.28
2023-11-13T16:48:01.200Z,13.29
2023-11-13T16:50:27.976Z,13.31
2023-11-13T16:52:54.893Z,13.32
2023-11-13T16:55:21.500Z,13.33
2023-11-13T16:57:48.129Z,13.34
2023-11-13T17:00:16.618Z,13.35
2023-11-13T17:03:01.314Z,13.37
2023-11-13T17:08:34.267Z,13.38
2023-11-13T17:11:00.989Z,13.34
2023-11-13T17:13:27.873Z,13.30
2023-11-13T17:15:54.673Z,13.26
2023-11-13T17:18:21.412Z,13.22
2023-11-13T17:20:48.074Z,13.19
2023-11-13T17:23:15.186Z,13.16
2023-11-13T17:25:44.002Z,13.13
2023-11-13T17:28:10.812Z,13.12
2023-11-13T17:30:37.452Z,13.10
2023-11-13T17:33:05.145Z,13.09
2023-11-13T17:35:31.802Z,13.09
2023-11-13T17:37:58.665Z,13.08
2023-11-13T17:40:25.288Z,13.07
2023-11-13T17:42:52.129Z,13.07
2023-11-13T17:45:20.867Z,13.08
2023-11-13T17:47:47.656Z,13.09
2023-11-13T17:50:14.330Z,13.11
2023-11-13T17:52:42.173Z,13.12
2023-11-13T17:55:11.142Z,13.14
2023-11-13T17:57:38.821Z,13.17
2023-11-13T18:00:11.954Z,13.20
2023-11-13T18:02:39.632Z,13.23
2023-11-13T18:05:08.006Z,13.26
2023-11-13T18:08:41.320Z,13.31
2023-11-13T18:11:11.642Z,13.31
2023-11-13T18:13:38.706Z,13.33
2023-11-13T18:16:06.005Z,13.33
2023-11-13T18:18:33.206Z,13.33
2023-11-13T18:21:00.342Z,13.34
2023-11-13T18:23:27.055Z,13.35
2023-11-13T18:25:56.285Z,13.37
2023-11-13T18:28:24.869Z,13.38
2023-11-13T18:30:57.439Z,13.39
2023-11-13T18:33:30.269Z,13.39
2023-11-13T18:35:58.435Z,13.39
2023-11-13T18:38:27.946Z,13.39
2023-11-13T18:40:54.776Z,13.38
2023-11-13T18:43:21.383Z,13.37
2023-11-13T18:45:51.365Z,13.37
2023-11-13T18:48:18.937Z,13.37
2023-11-13T18:50:45.605Z,13.38
2023-11-13T18:53:12.319Z,13.38
2023-11-13T18:55:38.854Z,13.37
2023-11-13T18:58:06.699Z,13.36
2023-11-13T19:00:34.196Z,13.36
2023-11-13T19:03:00.759Z,13.34
2023-11-13T19:08:52.509Z,13.31
2023-11-13T19:11:19.779Z,13.25
2023-11-13T19:13:48.910Z,13.22
2023-11-13T19:16:14.822Z,13.22
2023-11-13T19:18:41.328Z,13.20
2023-11-13T19:21:09.365Z,13.18
2023-11-13T19:23:35.338Z,13.16
2023-11-13T19:26:01.358Z,13.14
2023-11-13T19:28:27.226Z,13.14
2023-11-13T19:30:53.446Z,13.13
2023-11-13T19:33:19.269Z,13.11
2023-11-13T19:35:46.232Z,13.11
2023-11-13T19:38:12.102Z,13.12
2023-11-13T19:40:38.984Z,13.13
2023-11-13T19:43:07.009Z,13.14
2023-11-13T19:45:34.862Z,13.15
2023-11-13T19:48:01.206Z,13.12
2023-11-13T19:50:28.237Z,13.09
2023-11-13T19:52:54.439Z,13.06
2023-11-13T19:55:21.059Z,13.04
2023-11-13T19:57:47.016Z,13.01
2023-11-13T20:00:16.622Z,12.98
2023-11-13T20:02:43.248Z,12.96
2023-11-13T20:05:09.333Z,12.96
2023-11-13T20:08:39.400Z,12.96
2023-11-13T20:11:07.860Z,12.90
2023-11-13T20:13:34.940Z,12.87
2023-11-13T20:16:02.909Z,12.82
2023-11-13T20:18:36.420Z,12.78
2023-11-13T20:33:33.261Z,12.70
2023-11-13T20:36:00.353Z,12.68
2023-11-13T20:38:27.547Z,12.68
2023-11-13T20:40:54.423Z,12.67
2023-11-13T20:43:21.166Z,12.65
2023-11-13T20:45:48.404Z,12.64
2023-11-13T20:48:15.314Z,12.61
2023-11-13T20:50:41.862Z,12.57
2023-11-13T20:53:10.010Z,12.54
2023-11-13T20:55:36.899Z,12.51
2023-11-13T20:58:08.383Z,12.49
2023-11-13T21:00:35.071Z,12.47
2023-11-13T21:03:01.700Z,12.46
2023-11-13T21:08:36.321Z,12.48
2023-11-13T21:11:06.873Z,12.45
2023-11-13T21:23:14.482Z,12.28
2023-11-13T21:25:41.230Z,12.22
2023-11-13T21:28:07.986Z,12.17
2023-11-13T21:30:35.645Z,12.15
2023-11-13T21:33:02.140Z,12.12
2023-11-13T21:35:28.714Z,12.07
2023-11-13T21:37:55.345Z,12.03
2023-11-13T21:40:21.956Z,11.99
2023-11-13T21:42:48.706Z,11.94
2023-11-13T21:45:18.213Z,11.92
2023-11-13T21:47:45.609Z,11.87
2023-11-13T21:50:13.534Z,11.84
2023-11-13T21:52:42.118Z,11.82
2023-11-13T21:55:09.205Z,11.81
2023-11-13T21:57:36.960Z,11.80
2023-11-13T22:00:04.174Z,11.78
2023-11-13T22:02:30.780Z,11.76
2023-11-13T22:04:57.522Z,11.75
2023-11-13T22:08:39.410Z,11.77
2023-11-13T22:11:06.047Z,11.75
2023-11-13T22:13:33.538Z,11.73
2023-11-13T22:16:00.723Z,11.72
2023-11-13T22:18:27.721Z,11.70
2023-11-13T22:20:54.781Z,11.67
2023-11-13T22:23:21.396Z,11.66
2023-11-13T22:25:48.169Z,11.62
2023-11-13T22:28:14.772Z,11.59
2023-11-13T22:30:41.590Z,11.56
2023-11-13T22:33:09.966Z,11.54
2023-11-13T22:35:36.598Z,11.51
2023-11-13T22:38:05.427Z,11.47
2023-11-13T22:40:32.503Z,11.41
2023-11-13T22:42:59.991Z,11.34
2023-11-13T22:45:27.299Z,11.27
2023-11-13T22:47:54.213Z,11.20
2023-11-13T22:50:21.125Z,11.16
2023-11-13T22:52:47.710Z,11.10
2023-11-13T22:55:14.498Z,11.06
2023-11-13T22:57:41.012Z,11.03
2023-11-13T23:00:16.965Z,11.00
2023-11-13T23:02:43.629Z,10.98
2023-11-13T23:05:10.550Z,10.95
2023-11-13T23:07:37.420Z,10.94
2023-11-13T23:10:06.414Z,10.91
2023-11-13T23:12:33.150Z,10.88
2023-11-13T23:14:59.941Z,10.87
2023-11-13T23:17:26.576Z,10.86
2023-11-13T23:19:53.281Z,10.85
2023-11-13T23:22:19.867Z,10.85
2023-11-13T23:24:46.477Z,10.85
2023-11-13T23:27:13.090Z,10.86
2023-11-13T23:29:40.481Z,10.86
2023-11-13T23:32:07.450Z,10.85
2023-11-13T23:34:34.063Z,10.85
2023-11-13T23:37:00.634Z,10.84
2023-11-13T23:39:27.561Z,10.83
2023-11-13T23:41:54.189Z,10.82
2023-11-13T23:44:20.643Z,10.80
2023-11-13T23:46:48.839Z,10.78
2023-11-13T23:49:15.753Z,10.75
2023-11-13T23:51:42.352Z,10.73
2023-11-13T23:54:08.912Z,10.72
2023-11-13T23:56:35.409Z,10.70
2023-11-13T23:59:02.478Z,10.68
